Kriti Ruby — SVAT5 — position and weather

sailwx.info

Track history (hours):
 
Tides and Currents Weather Stations Pressure Air Temp Water Temp Dewpoint Dewpoint Depression Visibility Wind Speed Wind Dir Waves Ship Positions

Kriti Ruby

Last reported at 2016-Apr-23 05:33 UTC. Time now 2016-Apr-29 14:03 UTC.
Position N 31°18' E 121°46'.

Length 183 m; draft 9.7 m.

Type: Ship (hazmat cat C). MMSI: 240941000.

Date/timePositionNaut miles runAvg speedWind from/ knotsBaromVisibWave heightAir tempDewpointWater temp
2016-Apr-23 05:33N 31°18' E 121°46'1010.0
2016-Apr-23 04:33N 31°23' E 121°35'1 1.2
2016-Apr-23 03:22N 31°23' E 121°34'0 0.0
2016-Apr-23 02:16N 31°23' E 121°34'0 0.0
2016-Apr-23 01:28N 31°23' E 121°34'0 0.0
2016-Apr-23 00:28N 31°23' E 121°34'0 0.0
2016-Apr-22 23:22N 31°23' E 121°34'0 0.0
2016-Apr-22 22:16N 31°23' E 121°34'0 0.0
2016-Apr-22 21:10N 31°23' E 121°34'0 0.0
2016-Apr-22 20:22N 31°23' E 121°34'0 0.0
2016-Apr-22 19:22N 31°23' E 121°34'0 0.0
2016-Apr-22 18:28N 31°23' E 121°34'0 0.0
2016-Apr-22 17:28N 31°23' E 121°34'0 0.0
2016-Apr-22 16:16N 31°23' E 121°34'0 0.0
2016-Apr-22 15:28N 31°23' E 121°34'0 0.0
2016-Apr-22 14:28N 31°23' E 121°34'0 0.0
2016-Apr-22 13:16N 31°23' E 121°34'0 0.0
2016-Apr-22 11:22N 31°23' E 121°34'0 0.0
2016-Apr-22 10:28N 31°23' E 121°34'0 0.0
2016-Apr-22 09:28N 31°23' E 121°34'0 0.0
2016-Apr-22 07:16N 31°23' E 121°34'0 0.0
2016-Apr-22 06:22N 31°23' E 121°34'0 0.0
2016-Apr-22 05:28N 31°23' E 121°34'0 0.0
2016-Apr-22 04:28N 31°23' E 121°34'0 0.0
2016-Apr-22 03:28N 31°23' E 121°34'0 0.0
2016-Apr-22 02:10N 31°23' E 121°34'0 0.0
2016-Apr-22 01:28N 31°23' E 121°34'0 0.0
2016-Apr-21 23:28N 31°23' E 121°34'0 0.0
2016-Apr-21 22:22N 31°23' E 121°34'0 0.0
2016-Apr-21 21:28N 31°23' E 121°34'0 0.0
2016-Apr-21 20:28N 31°23' E 121°34'0 0.0
2016-Apr-21 19:28N 31°23' E 121°34'0 0.0
2016-Apr-21 18:28N 31°23' E 121°34'0 0.0
2016-Apr-21 15:16N 31°23' E 121°34'0 0.0
2016-Apr-21 14:22N 31°23' E 121°34'0 0.0
2016-Apr-21 13:22N 31°23' E 121°34'0 0.0
2016-Apr-21 11:16N 31°23' E 121°34'0 0.0
2016-Apr-21 10:16N 31°23' E 121°34'0 0.0
2016-Apr-21 09:28N 31°23' E 121°34'0 0.0
2016-Apr-21 08:10N 31°23' E 121°34'0 0.0
2016-Apr-21 07:10N 31°23' E 121°34'0 0.0
2016-Apr-21 05:28N 31°23' E 121°34'0 0.0
2016-Apr-21 03:16N 31°23' E 121°34'1 1.6
2016-Apr-21 02:33N 31°24' E 121°33'8 8.0
2016-Apr-21 01:33N 31°29' E 121°26'7 7.1
2016-Apr-21 00:33N 31°34' E 121°20'0 0.1
2016-Apr-20 23:33N 31°34' E 121°20'0 0.0
2016-Apr-20 22:33N 31°34' E 121°20'0 0.0
2016-Apr-20 21:33N 31°34' E 121°20'0 0.0
2016-Apr-20 20:27N 31°34' E 121°20'0 0.0
2016-Apr-20 19:15N 31°34' E 121°20'0 0.1
2016-Apr-20 18:15N 31°34' E 121°20'0 0.1
2016-Apr-20 16:33N 31°35' E 121°20'0 0.0
2016-Apr-20 15:27N 31°34' E 121°20'0 0.1
2016-Apr-20 13:27N 31°34' E 121°20'0 0.0
2016-Apr-20 12:15N 31°34' E 121°20'0 0.0
2016-Apr-20 10:33N 31°34' E 121°20'1 1.3
2016-Apr-20 09:33N 31°34' E 121°19'1413.5
2016-Apr-20 08:32N 31°44' E 121°07'1212.3
2016-Apr-20 07:33N 31°50' E 120°54'1411.0
2016-Apr-20 06:17N 32°00' E 120°44'811.1
2016-Apr-20 05:33N 32°01' E 120°34'1110.4
2016-Apr-20 04:32N 31°60' E 120°22'2311.4
2016-Apr-20 02:30N 32°05' E 119°55'  
2016-Apr-17 18:20N 31°57' E 120°07'9 9.8
2016-Apr-17 17:25N 31°57' E 120°17'1110.3
2016-Apr-17 16:21N 32°02' E 120°29'1012.0
2016-Apr-17 15:32N 32°00' E 120°40'1110.2
2016-Apr-17 14:29N 31°56' E 120°52'1111.5
2016-Apr-17 13:31N 31°47' E 120°59'1111.7
2016-Apr-17 12:33N 31°41' E 121°10'1211.9
2016-Apr-17 11:33N 31°33' E 121°20'1111.0
2016-Apr-17 10:33N 31°26' E 121°30'1010.1
2016-Apr-17 09:33N 31°21' E 121°40'1311.2
2016-Apr-17 08:23N 31°16' E 121°55'35 0.9
2016-Apr-15 15:24N 31°12' E 122°36'0 0.0
2016-Apr-15 14:18N 31°12' E 122°36'2 3.1
2016-Apr-15 13:33N 31°10' E 122°34'7 6.6
2016-Apr-15 12:32N 31°06' E 122°41'2411.5
2016-Apr-15 10:28N 30°45' E 122°53'1314.4
2016-Apr-15 09:32N 30°32' E 122°53'1413.9
2016-Apr-15 08:32N 30°18' E 122°53'1212.4
2016-Apr-15 07:33N 30°06' E 122°47'1212.1
2016-Apr-15 06:31N 30°07' E 122°32'1311.5
2016-Apr-15 05:21N 30°07' E 122°17'4 0.1
2016-Apr-13 07:27N 30°07' E 122°13'  
Track history (hours):
 
Tides and Currents Weather Stations Pressure Air Temp Water Temp Dewpoint Dewpoint Depression Visibility Wind Speed Wind Dir Waves Ship Positions

Kriti Ruby

Last reported at 2016-Apr-23 05:33 UTC. Time now 2016-Apr-29 14:03 UTC.
Position N 31°18' E 121°46'.

Length 183 m; draft 9.7 m.

Type: Ship (hazmat cat C). MMSI: 240941000.

Date/timePositionNaut miles runAvg speedWind from/ knotsBaromVisibWave heightAir tempDewpointWater temp
2016-Apr-23 05:33N 31°18' E 121°46'1010.0
2016-Apr-23 04:33N 31°23' E 121°35'1 1.2
2016-Apr-23 03:22N 31°23' E 121°34'0 0.0
2016-Apr-23 02:16N 31°23' E 121°34'0 0.0
2016-Apr-23 01:28N 31°23' E 121°34'0 0.0
2016-Apr-23 00:28N 31°23' E 121°34'0 0.0
2016-Apr-22 23:22N 31°23' E 121°34'0 0.0
2016-Apr-22 22:16N 31°23' E 121°34'0 0.0
2016-Apr-22 21:10N 31°23' E 121°34'0 0.0
2016-Apr-22 20:22N 31°23' E 121°34'0 0.0
2016-Apr-22 19:22N 31°23' E 121°34'0 0.0
2016-Apr-22 18:28N 31°23' E 121°34'0 0.0
2016-Apr-22 17:28N 31°23' E 121°34'0 0.0
2016-Apr-22 16:16N 31°23' E 121°34'0 0.0
2016-Apr-22 15:28N 31°23' E 121°34'0 0.0
2016-Apr-22 14:28N 31°23' E 121°34'0 0.0
2016-Apr-22 13:16N 31°23' E 121°34'0 0.0
2016-Apr-22 11:22N 31°23' E 121°34'0 0.0
2016-Apr-22 10:28N 31°23' E 121°34'0 0.0
2016-Apr-22 09:28N 31°23' E 121°34'0 0.0
2016-Apr-22 07:16N 31°23' E 121°34'0 0.0
2016-Apr-22 06:22N 31°23' E 121°34'0 0.0
2016-Apr-22 05:28N 31°23' E 121°34'0 0.0
2016-Apr-22 04:28N 31°23' E 121°34'0 0.0
2016-Apr-22 03:28N 31°23' E 121°34'0 0.0
2016-Apr-22 02:10N 31°23' E 121°34'0 0.0
2016-Apr-22 01:28N 31°23' E 121°34'0 0.0
2016-Apr-21 23:28N 31°23' E 121°34'0 0.0
2016-Apr-21 22:22N 31°23' E 121°34'0 0.0
2016-Apr-21 21:28N 31°23' E 121°34'0 0.0
2016-Apr-21 20:28N 31°23' E 121°34'0 0.0
2016-Apr-21 19:28N 31°23' E 121°34'0 0.0
2016-Apr-21 18:28N 31°23' E 121°34'0 0.0
2016-Apr-21 15:16N 31°23' E 121°34'0 0.0
2016-Apr-21 14:22N 31°23' E 121°34'0 0.0
2016-Apr-21 13:22N 31°23' E 121°34'0 0.0
2016-Apr-21 11:16N 31°23' E 121°34'0 0.0
2016-Apr-21 10:16N 31°23' E 121°34'0 0.0
2016-Apr-21 09:28N 31°23' E 121°34'0 0.0
2016-Apr-21 08:10N 31°23' E 121°34'0 0.0
2016-Apr-21 07:10N 31°23' E 121°34'0 0.0
2016-Apr-21 05:28N 31°23' E 121°34'0 0.0
2016-Apr-21 03:16N 31°23' E 121°34'1 1.6
2016-Apr-21 02:33N 31°24' E 121°33'8 8.0
2016-Apr-21 01:33N 31°29' E 121°26'7 7.1
2016-Apr-21 00:33N 31°34' E 121°20'0 0.1
2016-Apr-20 23:33N 31°34' E 121°20'0 0.0
2016-Apr-20 22:33N 31°34' E 121°20'0 0.0
2016-Apr-20 21:33N 31°34' E 121°20'0 0.0
2016-Apr-20 20:27N 31°34' E 121°20'0 0.0
2016-Apr-20 19:15N 31°34' E 121°20'0 0.1
2016-Apr-20 18:15N 31°34' E 121°20'0 0.1
2016-Apr-20 16:33N 31°35' E 121°20'0 0.0
2016-Apr-20 15:27N 31°34' E 121°20'0 0.1
2016-Apr-20 13:27N 31°34' E 121°20'0 0.0
2016-Apr-20 12:15N 31°34' E 121°20'0 0.0
2016-Apr-20 10:33N 31°34' E 121°20'1 1.3
2016-Apr-20 09:33N 31°34' E 121°19'1413.5
2016-Apr-20 08:32N 31°44' E 121°07'1212.3
2016-Apr-20 07:33N 31°50' E 120°54'1411.0
2016-Apr-20 06:17N 32°00' E 120°44'811.1
2016-Apr-20 05:33N 32°01' E 120°34'1110.4
2016-Apr-20 04:32N 31°60' E 120°22'2311.4
2016-Apr-20 02:30N 32°05' E 119°55'  
2016-Apr-17 18:20N 31°57' E 120°07'9 9.8
2016-Apr-17 17:25N 31°57' E 120°17'1110.3
2016-Apr-17 16:21N 32°02' E 120°29'1012.0
2016-Apr-17 15:32N 32°00' E 120°40'1110.2
2016-Apr-17 14:29N 31°56' E 120°52'1111.5
2016-Apr-17 13:31N 31°47' E 120°59'1111.7
2016-Apr-17 12:33N 31°41' E 121°10'1211.9
2016-Apr-17 11:33N 31°33' E 121°20'1111.0
2016-Apr-17 10:33N 31°26' E 121°30'1010.1
2016-Apr-17 09:33N 31°21' E 121°40'1311.2
2016-Apr-17 08:23N 31°16' E 121°55'35 0.9
2016-Apr-15 15:24N 31°12' E 122°36'0 0.0
2016-Apr-15 14:18N 31°12' E 122°36'2 3.1
2016-Apr-15 13:33N 31°10' E 122°34'7 6.6
2016-Apr-15 12:32N 31°06' E 122°41'2411.5
2016-Apr-15 10:28N 30°45' E 122°53'1314.4
2016-Apr-15 09:32N 30°32' E 122°53'1413.9
2016-Apr-15 08:32N 30°18' E 122°53'1212.4
2016-Apr-15 07:33N 30°06' E 122°47'1212.1
2016-Apr-15 06:31N 30°07' E 122°32'1311.5
2016-Apr-15 05:21N 30°07' E 122°17'4 0.1
2016-Apr-13 07:27N 30°07' E 122°13'  

Dump ship's entire track history